Time;durP1;ratioP1;P1;durP2;ratioP2;P2;SDS_P1;SDS_P2;PMS_P1;PMS_P2;Temp;Humidity;BMP_temperature;BMP_pressure;BME280_temperature;BME280_humidity;BME280_pressure;Samples;Min_cycle;Max_cycle;Signal;HPM_P1;HPM_P2
2021/06/26 00:00:58;;;;;;;13.20;9.38;;;;;;;16.37;100.00;96685.53;5040040;28;20684;-51
2021/06/26 00:03:27;;;;;;;14.68;9.73;;;;;;;16.48;100.00;96684.28;5047469;28;20068;-58
2021/06/26 00:05:56;;;;;;;11.38;9.00;;;;;;;16.48;100.00;96678.97;5050319;28;20056;-54
2021/06/26 00:08:26;;;;;;;15.00;9.07;;;;;;;16.31;100.00;96688.88;5047634;28;20466;-57
2021/06/26 00:10:54;;;;;;;16.80;10.43;;;;;;;16.08;100.00;96686.19;5045958;28;20442;-55
2021/06/26 00:13:23;;;;;;;13.52;10.80;;;;;;;16.09;100.00;96687.84;5047571;28;20488;-58
2021/06/26 00:15:53;;;;;;;14.38;10.80;;;;;;;16.11;100.00;96681.34;5045590;28;20053;-54
2021/06/26 00:18:21;;;;;;;15.27;10.93;;;;;;;16.19;100.00;96683.13;5042090;28;20546;-54
2021/06/26 00:20:50;;;;;;;17.20;11.98;;;;;;;16.34;100.00;96678.75;5044289;28;20064;-54
2021/06/26 00:23:21;;;;;;;17.40;11.50;;;;;;;16.38;100.00;96679.22;5042032;28;20127;-61
2021/06/26 00:25:50;;;;;;;16.13;11.55;;;;;;;16.36;100.00;96676.72;5044914;28;20087;-54
2021/06/26 05:14:51;;;;;;;13.50;12.10;;;;;;;22.90;100.00;96605.38;5098940;27;20515;-59
2021/06/26 05:17:18;;;;;;;12.80;11.13;;;;;;;23.50;100.00;96612.13;4994273;28;1274421;-59
2021/06/26 05:19:48;;;;;;;11.63;10.52;;;;;;;24.44;100.00;96618.97;5008359;28;20639;-58
2021/06/26 05:22:16;;;;;;;12.48;11.27;;;;;;;23.88;100.00;96620.03;5002905;28;20078;-60
2021/06/26 05:24:44;;;;;;;12.50;11.02;;;;;;;23.98;100.00;96622.22;5007609;28;20541;-58
2021/06/26 05:27:13;;;;;;;11.88;10.65;;;;;;;23.79;100.00;96626.78;5006987;23;20092;-58
2021/06/26 05:29:42;;;;;;;11.20;10.18;;;;;;;22.40;100.00;96631.34;5046758;28;20537;-52
2021/06/26 05:32:12;;;;;;;11.68;10.57;;;;;;;21.18;100.00;96636.41;5046716;28;20064;-56
2021/06/26 05:34:41;;;;;;;11.80;10.65;;;;;;;22.01;100.00;96625.09;5044702;28;20085;-52
2021/06/26 05:37:10;;;;;;;10.55;9.50;;;;;;;21.23;100.00;96633.09;5047791;28;20084;-57
2021/06/26 05:39:38;;;;;;;10.30;9.30;;;;;;;21.20;100.00;96628.16;5047817;28;20069;-53
2021/06/26 05:42:07;;;;;;;12.63;9.57;;;;;;;21.30;100.00;96628.53;5043603;28;20068;-59
2021/06/26 05:44:35;;;;;;;10.45;9.45;;;;;;;20.68;100.00;96630.63;5044034;28;20080;-55
2021/06/26 05:47:04;;;;;;;11.52;9.20;;;;;;;20.63;100.00;96635.75;5044583;28;20080;-57
2021/06/26 05:49:34;;;;;;;10.27;9.32;;;;;;;20.15;100.00;96633.09;5050213;28;20076;-57
2021/06/26 05:52:02;;;;;;;10.32;9.25;;;;;;;21.02;100.00;96632.25;5048162;28;20356;-54
2021/06/26 05:54:31;;;;;;;10.00;8.95;;;;;;;20.82;100.00;96632.28;5041486;28;20076;-54
2021/06/26 05:57:01;;;;;;;10.35;9.25;;;;;;;20.87;100.00;96631.66;5046175;28;20676;-55
2021/06/26 05:59:30;;;;;;;10.40;9.40;;;;;;;21.19;100.00;96624.63;5044104;28;20065;-52
2021/06/26 06:01:58;;;;;;;10.88;9.63;;;;;;;21.57;100.00;96632.03;5043237;28;20065;-55
2021/06/26 06:04:26;;;;;;;10.57;9.48;;;;;;;21.76;100.00;96633.88;5048746;28;20073;-59
2021/06/26 06:06:56;;;;;;;11.85;10.65;;;;;;;22.25;100.00;96618.22;5050538;28;20496;-56
2021/06/26 06:09:24;;;;;;;11.95;10.65;;;;;;;20.84;100.00;96629.38;5046385;28;20568;-57
2021/06/26 06:11:53;;;;;;;15.65;13.07;;;;;;;20.41;100.00;96636.91;5043207;28;20482;-56
2021/06/26 06:14:21;;;;;;;14.25;12.75;;;;;;;21.01;100.00;96635.16;5042848;28;20168;-56
2021/06/26 06:16:49;;;;;;;14.25;12.68;;;;;;;20.69;100.00;96629.56;5041176;28;20081;-59
2021/06/26 06:19:18;;;;;;;14.15;12.50;;;;;;;20.55;100.00;96638.63;5047965;28;20083;-55
2021/06/26 06:21:46;;;;;;;15.48;13.80;;;;;;;20.51;100.00;96632.84;5040822;28;20073;-52
2021/06/26 06:24:17;;;;;;;16.35;14.65;;;;;;;19.75;100.00;96632.94;5038607;28;20071;-56
2021/06/26 06:26:45;;;;;;;15.63;13.57;;;;;;;20.13;100.00;96627.97;5033069;28;20087;-59
2021/06/26 06:29:14;;;;;;;16.02;13.90;;;;;;;19.90;100.00;96624.78;5029025;28;20072;-60
2021/06/26 06:31:42;;;;;;;16.75;13.43;;;;;;;20.19;100.00;96615.59;5034010;28;20076;-55
2021/06/26 06:34:29;;;;;;;16.63;13.57;;;;;;;19.78;100.00;96626.34;5027805;28;20083;-56
2021/06/26 06:36:57;;;;;;;16.85;13.30;;;;;;;20.48;100.00;96619.00;5033739;28;20076;-54
2021/06/26 06:39:27;;;;;;;16.98;13.88;;;;;;;20.22;100.00;96617.06;5029474;28;20176;-53
2021/06/26 06:41:55;;;;;;;16.77;14.55;;;;;;;20.15;100.00;96609.84;5029483;28;20080;-57
2021/06/26 06:44:23;;;;;;;18.63;15.35;;;;;;;20.21;100.00;96607.41;5030960;28;20080;-56
2021/06/26 06:46:52;;;;;;;17.35;14.48;;;;;;;19.69;100.00;96617.69;5028837;28;20458;-55
2021/06/26 06:49:20;;;;;;;16.92;14.70;;;;;;;20.12;100.00;96609.41;5038624;28;20148;-51
2021/06/26 06:51:49;;;;;;;17.25;14.20;;;;;;;19.82;100.00;96615.06;5030832;28;20069;-57
2021/06/26 06:54:17;;;;;;;18.65;14.52;;;;;;;20.09;100.00;96615.97;5026274;28;20064;-59
2021/06/26 06:56:46;;;;;;;15.02;13.38;;;;;;;20.44;100.00;96615.06;5030039;28;20080;-55
2021/06/26 06:59:15;;;;;;;18.73;14.80;;;;;;;20.41;100.00;96610.13;5031164;28;20057;-57
2021/06/26 07:01:43;;;;;;;15.65;13.90;;;;;;;20.33;100.00;96608.44;5029507;28;20095;-55
2021/06/26 07:04:11;;;;;;;17.20;13.85;;;;;;;20.43;100.00;96613.41;5031724;28;20069;-58
2021/06/26 07:06:40;;;;;;;15.98;13.82;;;;;;;20.48;100.00;96619.00;5032589;28;20510;-58
2021/06/26 07:09:08;;;;;;;15.10;13.50;;;;;;;20.57;100.00;96615.94;5026227;28;20068;-57
2021/06/26 07:11:36;;;;;;;16.23;14.52;;;;;;;20.69;100.00;96615.34;5027575;28;20111;-54
2021/06/26 07:14:06;;;;;;;15.88;13.45;;;;;;;21.22;100.00;96613.50;5033183;28;20064;-54
2021/06/26 07:16:34;;;;;;;15.90;13.52;;;;;;;20.64;100.00;96607.91;5033804;28;20076;-54
2021/06/26 07:19:04;;;;;;;15.15;13.57;;;;;;;20.29;100.00;96615.22;5032137;28;20079;-53
2021/06/26 07:21:33;;;;;;;16.77;14.07;;;;;;;20.41;100.00;96616.31;5028895;28;20522;-55
2021/06/26 07:24:01;;;;;;;14.70;13.15;;;;;;;21.14;100.00;96612.91;5027170;28;20084;-52
2021/06/26 07:26:29;;;;;;;16.63;13.80;;;;;;;21.27;100.00;96610.19;5031592;28;20080;-54
2021/06/26 07:28:58;;;;;;;14.52;11.55;;;;;;;21.55;100.00;96610.78;5025216;28;20506;-56
2021/06/26 07:31:27;;;;;;;12.93;11.63;;;;;;;21.27;100.00;96610.19;5031947;28;20068;-54
2021/06/26 07:33:56;;;;;;;12.70;11.27;;;;;;;21.54;100.00;96603.78;5024918;28;20069;-53
2021/06/26 07:36:24;;;;;;;11.98;10.38;;;;;;;21.35;100.00;96604.66;5027732;28;20099;-54
2021/06/26 07:38:53;;;;;;;11.18;9.98;;;;;;;22.35;100.00;96596.25;5031841;28;20064;-54
2021/06/26 07:41:22;;;;;;;10.90;9.43;;;;;;;21.79;100.00;96605.78;5030068;28;20073;-57
2021/06/26 07:43:51;;;;;;;11.32;10.13;;;;;;;21.57;100.00;96599.84;5030580;28;20095;-56
2021/06/26 07:46:19;;;;;;;12.13;10.90;;;;;;;21.55;100.00;96597.38;5031265;28;20080;-56
2021/06/26 07:48:49;;;;;;;12.45;10.82;;;;;;;21.42;100.00;96593.91;5028318;28;20565;-57
2021/06/26 07:51:18;;;;;;;12.85;10.60;;;;;;;21.67;100.00;96591.34;5028858;28;20057;-55
2021/06/26 07:53:46;;;;;;;11.20;9.95;;;;;;;22.18;100.00;96582.50;5029212;28;20717;-53
2021/06/26 07:56:14;;;;;;;10.23;9.20;;;;;;;21.95;100.00;96586.47;5026588;28;20069;-57
2021/06/26 07:58:43;;;;;;;10.38;9.27;;;;;;;22.40;100.00;96578.47;5029677;28;20084;-60
2021/06/26 08:01:11;;;;;;;10.38;9.38;;;;;;;22.56;100.00;96585.16;5028611;28;20085;-55
2021/06/26 08:03:40;;;;;;;11.38;10.18;;;;;;;22.34;100.00;96589.25;5033348;28;20076;-56
2021/06/26 08:06:09;;;;;;;10.80;9.70;;;;;;;21.72;100.00;96587.00;5032475;28;20065;-56
2021/06/26 08:08:38;;;;;;;11.77;9.60;;;;;;;22.56;100.00;96582.47;5029925;28;20553;-57
2021/06/26 08:11:06;;;;;;;10.77;9.68;;;;;;;21.79;100.00;96587.81;5031433;28;20068;-55
2021/06/26 08:13:34;;;;;;;9.90;8.75;;;;;;;22.05;100.00;96578.78;5028599;28;20463;-54
2021/06/26 08:16:03;;;;;;;10.70;9.60;;;;;;;21.39;100.00;96583.59;5033423;28;20080;-55
2021/06/26 08:18:31;;;;;;;10.77;9.57;;;;;;;22.24;100.00;96576.28;5029848;28;20549;-55
2021/06/26 08:21:00;;;;;;;11.50;8.32;;;;;;;22.67;100.00;96565.63;5026457;28;20108;-57
2021/06/26 08:23:29;;;;;;;11.27;9.20;;;;;;;23.03;100.00;96569.53;5029245;28;20072;-59
2021/06/26 08:25:58;;;;;;;9.15;8.23;;;;;;;22.42;100.00;96554.88;5030395;28;20095;-55
2021/06/26 08:28:26;;;;;;;9.63;7.82;;;;;;;22.86;100.00;96557.66;5036152;28;20129;-57
2021/06/26 08:30:54;;;;;;;10.93;8.73;;;;;;;21.87;100.00;96562.56;5032310;28;20079;-58
2021/06/26 08:33:23;;;;;;;8.95;8.05;;;;;;;22.37;100.00;96557.41;5027240;28;20195;-55
2021/06/26 08:35:51;;;;;;;9.63;7.93;;;;;;;22.57;100.00;96553.72;5027148;28;20065;-56
2021/06/26 08:38:19;;;;;;;8.25;7.45;;;;;;;22.73;100.00;96559.41;5029049;28;20467;-57
2021/06/26 08:40:50;;;;;;;8.73;7.38;;;;;;;22.37;100.00;96561.94;5032089;28;20069;-56
2021/06/26 08:43:18;;;;;;;;;;;;;;;22.34;100.00;96560.50;5031840;28;20073;-56
2021/06/26 08:45:47;;;;;;;9.48;7.43;;;;;;;22.46;100.00;96564.13;5012158;28;20366;-56
2021/06/26 08:48:15;;;;;;;8.13;7.28;;;;;;;22.83;100.00;96553.53;5018018;28;20502;-52
2021/06/26 08:50:44;;;;;;;7.50;6.80;;;;;;;22.85;100.00;96559.53;5027233;28;20486;-54
2021/06/26 08:53:12;;;;;;;8.68;7.20;;;;;;;22.25;100.00;96559.94;5029592;28;20084;-57
2021/06/26 08:55:41;;;;;;;8.23;7.10;;;;;;;22.70;100.00;96553.63;5028958;28;20068;-54
2021/06/26 08:58:12;;;;;;;8.82;6.93;;;;;;;22.50;100.00;96548.41;5026556;28;20088;-57
2021/06/26 09:00:41;;;;;;;8.57;6.88;;;;;;;22.32;100.00;96545.63;5029691;28;20514;-55
2021/06/26 09:03:11;;;;;;;8.98;7.00;;;;;;;22.60;100.00;96539.84;5025381;28;20072;-57
2021/06/26 09:05:42;;;;;;;8.73;6.80;;;;;;;22.63;100.00;96542.09;5034912;28;20633;-53
2021/06/26 09:08:11;;;;;;;6.30;5.70;;;;;;;23.10;100.00;96545.25;5021068;28;20076;-54
2021/06/26 09:10:41;;;;;;;7.50;6.68;;;;;;;22.61;100.00;96549.56;5031568;28;20080;-51
2021/06/26 09:13:22;;;;;;;8.00;7.20;;;;;;;22.81;100.00;96542.16;5031458;28;20068;-53
2021/06/26 09:16:03;;;;;;;8.13;7.28;;;;;;;22.64;100.00;96555.34;5026768;28;20062;-58
2021/06/26 09:18:40;;;;;;;9.10;7.45;;;;;;;22.94;100.00;96541.25;5027205;28;20065;-54
2021/06/26 09:21:19;;;;;;;10.98;9.88;;;;;;;23.49;100.00;96529.75;5025446;28;20107;-56
2021/06/26 09:23:58;;;;;;;7.18;6.47;;;;;;;22.64;100.00;96533.00;5038352;28;20085;-53
2021/06/26 09:26:27;;;;;;;6.23;5.60;;;;;;;23.60;100.00;96531.69;5028408;28;20083;-58
2021/06/26 09:29:08;;;;;;;23.70;19.65;;;;;;;23.53;100.00;96537.13;5027263;28;20112;-55
2021/06/26 09:31:48;;;;;;;26.63;20.27;;;;;;;22.82;100.00;96540.31;5028661;28;20124;-56
2021/06/26 09:34:16;;;;;;;7.57;6.80;;;;;;;23.33;100.00;96531.16;5026927;28;20088;-57
2021/06/26 09:36:45;;;;;;;7.50;6.70;;;;;;;23.36;100.00;96528.81;5031203;28;20531;-54
2021/06/26 09:39:18;;;;;;;6.97;6.28;;;;;;;22.92;100.00;96527.19;5022381;28;20087;-54
2021/06/26 09:41:50;;;;;;;6.20;4.95;;;;;;;23.44;91.95;96531.25;5031555;28;20495;-52
2021/06/26 09:44:20;;;;;;;6.53;5.90;;;;;;;23.12;98.97;96533.22;5032351;28;20052;-56
2021/06/26 09:46:50;;;;;;;6.47;5.75;;;;;;;23.11;100.00;96525.38;5029029;28;20072;-57
2021/06/26 09:49:26;;;;;;;6.97;6.28;;;;;;;23.76;100.00;96525.72;5028606;28;20076;-57
2021/06/26 09:51:58;;;;;;;6.53;5.93;;;;;;;23.40;97.70;96529.19;5040944;28;20064;-53
2021/06/26 09:54:27;;;;;;;6.32;5.72;;;;;;;23.79;91.12;96530.66;5025503;28;20029;-57
2021/06/26 09:56:56;;;;;;;17.60;15.05;;;;;;;23.85;95.21;96527.06;5031460;28;20091;-58
2021/06/26 09:59:34;;;;;;;7.25;6.55;;;;;;;24.21;81.89;96522.63;5029383;28;20053;-55
2021/06/26 10:02:03;;;;;;;10.05;9.05;;;;;;;24.03;87.19;96520.00;5034061;28;20073;-58
2021/06/26 10:04:31;;;;;;;8.07;7.28;;;;;;;24.09;84.03;96514.50;5038764;28;20104;-56
2021/06/26 10:07:00;;;;;;;6.47;5.80;;;;;;;23.99;94.03;96518.81;5033211;28;20456;-57
2021/06/26 10:09:29;;;;;;;7.00;6.40;;;;;;;24.24;94.24;96510.56;5035472;28;20077;-55
2021/06/26 10:11:58;;;;;;;7.43;6.72;;;;;;;24.31;92.76;96501.34;5030343;28;20084;-57
2021/06/26 10:14:27;;;;;;;8.38;7.57;;;;;;;24.16;89.70;96515.25;5033779;28;20057;-59
2021/06/26 10:16:57;;;;;;;7.63;6.18;;;;;;;24.23;86.58;96515.16;5028159;28;20067;-57
2021/06/26 10:19:26;;;;;;;6.63;5.85;;;;;;;24.37;94.47;96496.91;5036442;28;20080;-56
2021/06/26 10:21:54;;;;;;;6.55;5.85;;;;;;;24.33;100.00;96501.94;5032392;28;20061;-57
2021/06/26 10:24:22;;;;;;;8.43;6.82;;;;;;;24.60;100.00;96505.06;5035406;28;20065;-55
2021/06/26 10:26:51;;;;;;;6.88;6.18;;;;;;;24.87;98.62;96499.22;5027856;28;20467;-56
2021/06/26 10:29:28;;;;;;;5.55;5.05;;;;;;;24.77;88.48;96501.66;5031384;28;20062;-58
2021/06/26 10:32:09;;;;;;;5.78;5.18;;;;;;;24.71;83.50;96492.66;5031340;28;20061;-55
2021/06/26 10:34:42;;;;;;;7.22;6.10;;;;;;;24.58;91.29;96506.34;5037392;28;20526;-57
2021/06/26 10:37:15;;;;;;;5.05;4.57;;;;;;;24.62;86.98;96497.56;5030289;28;20073;-58
2021/06/26 10:39:43;;;;;;;5.38;4.88;;;;;;;25.18;85.89;96495.38;5031206;28;20077;-56
2021/06/26 10:42:14;;;;;;;6.47;5.88;;;;;;;24.74;85.10;96497.59;5038472;28;20072;-57
2021/06/26 10:44:46;;;;;;;5.85;5.35;;;;;;;24.95;99.69;96492.63;5030752;28;20069;-56
2021/06/26 10:47:17;;;;;;;7.50;6.75;;;;;;;24.68;100.00;96495.81;5027159;28;20076;-56
2021/06/26 10:49:45;;;;;;;9.00;8.10;;;;;;;24.90;90.92;96496.06;5035405;28;20091;-54
2021/06/26 10:52:15;;;;;;;6.57;5.95;;;;;;;24.71;96.51;96503.44;5030358;28;20080;-51
2021/06/26 10:54:56;;;;;;;46.35;41.25;;;;;;;24.83;94.96;96489.94;5036397;28;20136;-56
2021/06/26 10:57:25;;;;;;;16.73;15.02;;;;;;;23.93;100.00;96496.28;5027376;28;20519;-55
2021/06/26 11:00:00;;;;;;;11.73;10.02;;;;;;;23.86;100.00;96499.06;5039738;28;20545;-52
2021/06/26 11:02:44;;;;;;;11.02;9.93;;;;;;;24.40;100.00;96493.78;5033849;28;20064;-57
2021/06/26 11:05:14;;;;;;;10.73;8.90;;;;;;;24.62;89.04;96502.13;5033495;28;20091;-51
2021/06/26 11:07:42;;;;;;;10.75;9.00;;;;;;;24.69;96.52;96492.06;5030370;28;20519;-57
2021/06/26 11:10:13;;;;;;;6.07;5.25;;;;;;;24.04;94.59;96486.59;5034378;28;20077;-49
2021/06/26 11:12:48;;;;;;;6.13;5.50;;;;;;;24.73;91.03;96487.00;5024631;28;20069;-56
2021/06/26 11:15:25;;;;;;;11.00;9.85;;;;;;;25.18;91.78;96495.38;5031160;28;20069;-56
2021/06/26 11:17:55;;;;;;;7.32;6.63;;;;;;;24.99;96.07;96488.44;5027928;28;20499;-57
2021/06/26 11:20:24;;;;;;;6.93;6.22;;;;;;;24.79;100.00;96488.78;5028940;28;20061;-53
2021/06/26 11:22:54;;;;;;;6.73;5.87;;;;;;;24.98;100.00;96492.19;5032761;28;20182;-54
2021/06/26 11:25:26;;;;;;;7.05;6.32;;;;;;;24.58;90.06;96495.56;5029989;28;20083;-55
2021/06/26 11:28:03;;;;;;;7.05;5.80;;;;;;;24.57;96.09;96499.28;5025915;28;20064;-55
2021/06/26 11:30:31;;;;;;;6.78;6.10;;;;;;;24.79;100.00;96486.91;5029785;28;20072;-57
2021/06/26 11:33:02;;;;;;;6.88;5.47;;;;;;;25.28;98.37;96492.06;5031248;28;20491;-55
2021/06/26 11:35:32;;;;;;;6.97;6.38;;;;;;;25.01;100.00;96486.31;5033582;28;20073;-54
2021/06/26 11:38:00;;;;;;;;;;;;;;;24.53;96.12;96490.03;5029829;28;20077;-57
2021/06/26 11:40:30;;;;;;;8.82;7.32;;;;;;;25.22;89.02;96480.34;5030236;28;19952;-55
2021/06/26 11:43:02;;;;;;;11.90;10.55;;;;;;;24.77;85.78;96480.91;5034098;28;20393;-56
2021/06/26 11:45:33;;;;;;;9.50;6.80;;;;;;;24.64;90.25;96481.16;5011734;28;20069;-53
2021/06/26 11:48:04;;;;;;;21.42;18.38;;;;;;;24.58;89.35;96488.28;5025302;23;20058;-57
2021/06/26 11:50:33;;;;;;;14.85;12.20;;;;;;;24.49;89.08;96481.59;4964497;28;20066;-59
2021/06/26 11:53:03;;;;;;;;;;;;;;;25.31;88.38;96478.91;4971297;28;20068;-58
2021/06/26 11:55:39;;;;;;;10.15;5.18;;;;;;;24.93;83.25;96479.41;4990488;28;19959;-58
2021/06/26 11:58:08;;;;;;;21.73;7.38;;;;;;;25.40;82.78;96473.16;4988141;28;20431;-60
2021/06/26 12:00:36;;;;;;;7.93;6.88;;;;;;;25.56;91.65;96469.69;4986551;28;20073;-58
2021/06/26 12:03:16;;;;;;;8.40;6.55;;;;;;;25.28;87.18;96473.19;4989601;28;20066;-58
2021/06/26 12:05:45;;;;;;;9.77;6.38;;;;;;;25.40;78.36;96463.19;4984738;28;20078;-59
2021/06/26 12:08:18;;;;;;;11.10;7.90;;;;;;;25.38;73.34;96465.28;4987130;28;20219;-59
2021/06/26 12:10:48;;;;;;;9.65;7.60;;;;;;;25.44;73.89;96469.75;4987300;28;20101;-59
2021/06/26 12:13:20;;;;;;;9.25;7.93;;;;;;;25.79;73.67;96463.41;4987612;28;20092;-59
2021/06/26 12:15:49;;;;;;;6.50;5.85;;;;;;;25.88;65.24;96461.16;4985376;28;20154;-57
2021/06/26 12:18:19;;;;;;;27.10;22.50;;;;;;;26.20;68.83;96465.00;4987045;28;20058;-56
2021/06/26 12:20:47;;;;;;;27.88;21.23;;;;;;;26.14;89.37;96462.47;4982644;28;20121;-59
2021/06/26 12:23:15;;;;;;;28.67;25.55;;;;;;;25.90;83.68;96462.56;4987623;28;20054;-58
2021/06/26 12:25:46;;;;;;;11.80;10.63;;;;;;;26.21;80.69;96460.41;4984875;28;20088;-58
2021/06/26 12:28:14;;;;;;;10.85;7.93;;;;;;;25.90;65.15;96459.88;4988078;28;20084;-61
2021/06/26 12:30:43;;;;;;;14.75;11.75;;;;;;;26.09;81.69;96463.19;4983838;28;20074;-60
2021/06/26 12:33:14;;;;;;;11.40;9.98;;;;;;;26.03;80.57;96462.28;4991647;28;20061;-57
2021/06/26 12:35:44;;;;;;;10.15;7.43;;;;;;;26.49;73.54;96452.28;4985090;28;20070;-59
2021/06/26 12:38:13;;;;;;;9.10;7.95;;;;;;;25.84;78.23;96463.53;4984142;28;20305;-54
2021/06/26 12:40:43;;;;;;;6.65;5.95;;;;;;;26.00;79.01;96454.66;4991998;28;20090;-58
2021/06/26 12:43:13;;;;;;;13.70;11.85;;;;;;;26.00;78.54;96456.53;4992918;28;20073;-54
2021/06/26 12:45:44;;;;;;;5.32;4.82;;;;;;;25.69;73.15;96455.94;4985774;28;20082;-59
2021/06/26 12:48:25;;;;;;;8.82;5.15;;;;;;;26.12;70.22;96451.06;4988256;28;20070;-59
2021/06/26 12:51:01;;;;;;;5.00;4.43;;;;;;;26.09;65.11;96446.97;4987350;28;20078;-57
2021/06/26 12:53:34;;;;;;;15.05;11.93;;;;;;;25.38;72.32;96448.28;4990331;28;20260;-58
2021/06/26 12:56:08;;;;;;;24.35;20.27;;;;;;;25.19;82.83;96445.75;4989110;28;20069;-55
2021/06/26 12:58:37;;;;;;;15.90;12.82;;;;;;;25.13;77.51;96444.00;4990878;28;20492;-59
2021/06/26 13:01:05;;;;;;;7.90;6.85;;;;;;;26.05;80.05;96429.63;4988966;28;20523;-57
2021/06/26 13:03:33;;;;;;;6.75;6.05;;;;;;;26.06;80.33;96428.53;4987291;28;20069;-58
2021/06/26 13:06:08;;;;;;;27.77;24.33;;;;;;;25.77;81.52;96433.94;4990736;28;20066;-57
2021/06/26 13:08:49;;;;;;;26.15;22.90;;;;;;;25.63;75.03;96423.66;4982500;28;20130;-58
2021/06/26 13:11:31;;;;;;;39.78;34.92;;;;;;;26.02;67.92;96428.22;4984768;28;20070;-63
2021/06/26 13:14:07;;;;;;;31.42;27.23;;;;;;;26.14;73.10;96421.91;4985358;28;20581;-57
2021/06/26 13:16:36;;;;;;;38.88;30.65;;;;;;;26.20;72.98;96429.88;4987901;28;20477;-59
2021/06/26 13:19:08;;;;;;;119.68;88.18;;;;;;;26.22;74.24;96414.22;4987786;28;20082;-59
2021/06/26 13:21:40;;;;;;;64.82;51.17;;;;;;;26.21;75.75;96417.16;4988316;28;20417;-60
2021/06/26 13:24:09;;;;;;;17.20;15.30;;;;;;;26.05;83.08;96416.09;4984734;28;20078;-58
2021/06/26 13:26:37;;;;;;;24.50;20.73;;;;;;;25.28;76.97;96414.59;4986903;28;20084;-57
2021/06/26 13:29:05;;;;;;;12.43;11.13;;;;;;;25.02;85.85;96429.44;4981707;28;20054;-56
2021/06/26 13:31:34;;;;;;;23.70;20.92;;;;;;;24.75;88.41;96425.59;4987495;28;20120;-54
2021/06/26 13:34:03;;;;;;;23.85;19.85;;;;;;;25.26;85.04;96411.34;4967179;28;21255;-56
2021/06/26 13:36:31;;;;;;;13.18;11.77;;;;;;;25.64;75.22;96407.22;4988437;28;20109;-56
2021/06/26 13:39:01;;;;;;;12.77;10.57;;;;;;;25.73;70.28;96413.84;4986718;28;20089;-55
2021/06/26 13:41:30;;;;;;;25.80;22.15;;;;;;;26.17;75.72;96408.72;4989780;28;20546;-53
2021/06/26 13:43:59;;;;;;;8.23;6.65;;;;;;;25.76;70.31;96402.56;4988310;28;20069;-57
2021/06/26 13:46:27;;;;;;;11.65;10.50;;;;;;;25.78;68.48;96407.75;4996756;28;20563;-56
2021/06/26 13:48:56;;;;;;;12.88;11.13;;;;;;;25.99;71.92;96404.38;4987547;28;20077;-56
2021/06/26 13:51:26;;;;;;;11.10;9.98;;;;;;;26.02;77.96;96400.38;4985829;28;20444;-56
2021/06/26 13:53:54;;;;;;;10.85;9.77;;;;;;;25.77;79.98;96401.53;4988794;28;20066;-56
2021/06/26 13:56:24;;;;;;;8.27;7.47;;;;;;;26.14;76.13;96397.59;4993278;28;20085;-57
2021/06/26 13:58:53;;;;;;;18.73;16.80;;;;;;;26.58;83.94;96403.19;4980997;28;20147;-56
2021/06/26 14:01:22;;;;;;;9.35;8.45;;;;;;;25.88;75.87;96409.81;4969197;28;20564;-57
2021/06/26 14:03:50;;;;;;;6.05;4.97;;;;;;;26.10;67.01;96401.84;4982065;28;20062;-54
2021/06/26 14:06:19;;;;;;;5.38;4.88;;;;;;;26.53;66.34;96398.50;4988866;28;20072;-56
2021/06/26 14:08:48;;;;;;;6.68;6.07;;;;;;;26.31;69.49;96394.88;4987523;28;20054;-55
2021/06/26 14:11:17;;;;;;;8.75;7.40;;;;;;;26.35;65.89;96393.31;4988655;28;20062;-56
2021/06/26 14:13:47;;;;;;;5.27;4.77;;;;;;;26.13;66.23;96401.38;4989846;28;20074;-54
2021/06/26 14:16:16;;;;;;;6.18;5.57;;;;;;;26.35;74.78;96404.16;4985914;28;20476;-57
2021/06/26 14:18:44;;;;;;;8.38;7.55;;;;;;;26.83;71.25;96397.31;4988769;28;20081;-56
2021/06/26 14:21:13;;;;;;;6.38;5.78;;;;;;;26.57;69.17;96388.03;4969929;28;20081;-58
2021/06/26 14:23:42;;;;;;;6.13;5.43;;;;;;;26.44;74.57;96392.69;4977867;28;20078;-60
2021/06/26 14:26:10;;;;;;;6.28;5.68;;;;;;;26.60;69.67;96384.81;4989284;28;20058;-57
2021/06/26 14:28:41;;;;;;;11.73;8.73;;;;;;;26.93;68.91;96389.34;4988906;28;20081;-58
2021/06/26 14:31:10;;;;;;;6.25;5.25;;;;;;;26.42;67.17;96385.88;4987729;28;20076;-58
2021/06/26 14:33:39;;;;;;;6.30;5.68;;;;;;;26.31;72.53;96378.66;4991267;28;20088;-55
2021/06/26 14:36:08;;;;;;;5.63;5.13;;;;;;;26.19;76.96;96392.28;4974519;28;20058;-58
2021/06/26 14:38:36;;;;;;;5.28;4.80;;;;;;;25.83;74.93;96388.94;4980627;28;20528;-55
2021/06/26 14:41:06;;;;;;;10.30;9.27;;;;;;;25.78;75.95;96394.25;4984767;28;20070;-57
2021/06/26 14:43:34;;;;;;;9.82;8.88;;;;;;;25.79;77.63;96391.31;4990534;28;20074;-56
2021/06/26 14:46:04;;;;;;;6.15;5.15;;;;;;;25.54;74.17;96377.31;4969752;28;20153;-57
2021/06/26 14:48:34;;;;;;;8.87;8.03;;;;;;;25.66;70.76;96385.38;4983713;28;20457;-57
2021/06/26 14:51:03;;;;;;;14.70;11.80;;;;;;;26.57;70.02;96385.34;4971662;28;20085;-58
2021/06/26 14:53:32;;;;;;;5.28;4.75;;;;;;;26.23;72.05;96377.19;4978252;28;20073;-54
2021/06/26 14:56:00;;;;;;;10.32;9.43;;;;;;;26.84;70.08;96380.84;4987262;28;20093;-57
2021/06/26 14:58:28;;;;;;;5.30;4.80;;;;;;;26.48;71.68;96377.63;4990014;28;20074;-57
2021/06/26 15:00:57;;;;;;;10.07;9.18;;;;;;;26.60;67.95;96379.41;4989650;28;20065;-59
2021/06/26 15:03:25;;;;;;;5.13;4.65;;;;;;;26.52;66.04;96380.66;4973279;28;20734;-57
2021/06/26 15:05:55;;;;;;;5.07;4.50;;;;;;;26.49;62.05;96379.25;4978117;28;20066;-58
2021/06/26 15:08:24;;;;;;;4.32;3.97;;;;;;;26.44;64.70;96389.97;4986789;28;20160;-58
2021/06/26 15:10:52;;;;;;;5.00;4.50;;;;;;;26.42;62.93;96383.16;4984597;28;20078;-55
2021/06/26 15:13:23;;;;;;;4.80;4.30;;;;;;;26.49;63.99;96381.13;4967913;28;20089;-58
2021/06/26 15:15:52;;;;;;;5.25;4.45;;;;;;;26.54;61.89;96369.59;4983845;28;20058;-55
2021/06/26 15:18:20;;;;;;;4.90;4.40;;;;;;;26.27;66.97;96372.94;4983299;28;20077;-57
2021/06/26 15:20:49;;;;;;;4.70;4.30;;;;;;;26.05;69.25;96370.16;4986550;28;20070;-56
2021/06/26 15:23:19;;;;;;;5.00;4.57;;;;;;;25.98;69.28;96366.78;4987455;28;20066;-55
2021/06/26 15:25:47;;;;;;;5.10;4.60;;;;;;;26.07;65.31;96375.31;4986439;28;20170;-55
2021/06/26 15:28:15;;;;;;;4.55;4.15;;;;;;;26.01;64.76;96366.28;4985628;28;20078;-56
2021/06/26 15:30:44;;;;;;;4.60;4.20;;;;;;;26.19;63.82;96354.44;4987127;28;20069;-54
2021/06/26 15:33:13;;;;;;;4.57;4.13;;;;;;;25.66;66.57;96359.16;4984247;28;20070;-55
2021/06/26 15:35:41;;;;;;;4.90;4.45;;;;;;;26.31;65.50;96355.16;4985919;28;20073;-58
2021/06/26 15:38:10;;;;;;;4.65;4.07;;;;;;;26.43;65.21;96355.88;4983783;28;20492;-54
2021/06/26 15:40:39;;;;;;;5.13;4.15;;;;;;;26.07;62.59;96350.97;4987369;28;20543;-56
2021/06/26 15:43:08;;;;;;;4.70;4.30;;;;;;;26.17;61.59;96348.44;4984356;28;20082;-55
2021/06/26 15:45:36;;;;;;;4.50;4.10;;;;;;;25.82;62.83;96354.09;4984916;28;20551;-57
2021/06/26 15:48:05;;;;;;;5.60;4.97;;;;;;;26.46;60.45;96349.16;4989630;28;20074;-56
2021/06/26 15:50:34;;;;;;;4.60;4.20;;;;;;;26.38;63.05;96350.38;4991008;28;20433;-58
2021/06/26 15:53:03;;;;;;;5.73;3.97;;;;;;;26.58;65.37;96347.19;4985140;28;20066;-55
2021/06/26 15:55:32;;;;;;;3.72;3.42;;;;;;;26.16;61.10;96352.22;4991624;28;20937;-56
2021/06/26 15:58:02;;;;;;;3.92;3.63;;;;;;;26.00;59.59;96348.44;4986134;28;20909;-57
2021/06/26 16:00:30;;;;;;;5.28;3.80;;;;;;;26.07;62.23;96340.16;4984597;28;20081;-57
2021/06/26 16:02:59;;;;;;;4.20;3.80;;;;;;;25.98;65.68;96348.69;4988537;28;20073;-53
2021/06/26 16:05:28;;;;;;;4.28;3.88;;;;;;;26.07;66.78;96349.09;4990362;28;20069;-58
2021/06/26 16:07:57;;;;;;;4.00;3.50;;;;;;;25.75;66.56;96341.50;4987677;28;20074;-58
2021/06/26 16:10:25;;;;;;;3.92;3.53;;;;;;;26.07;60.96;96342.88;4991688;28;20092;-58
2021/06/26 16:12:54;;;;;;;5.72;4.10;;;;;;;25.69;64.36;96333.56;4983373;28;20092;-56
2021/06/26 16:15:24;;;;;;;3.75;3.30;;;;;;;25.68;60.39;96329.22;4980337;28;20062;-56
2021/06/26 16:17:54;;;;;;;4.50;3.38;;;;;;;25.82;62.78;96327.88;4984663;28;20555;-53
2021/06/26 16:20:23;;;;;;;4.22;3.50;;;;;;;25.77;66.87;96330.44;4986850;28;20078;-53
2021/06/26 16:22:52;;;;;;;4.10;3.70;;;;;;;25.70;64.73;96325.19;4990301;28;20077;-58